Time;durP1;ratioP1;P1;durP2;ratioP2;P2;SDS_P1;SDS_P2;PMS_P1;PMS_P2;Temp;Humidity;BMP_temperature;BMP_pressure;BME280_temperature;BME280_humidity;BME280_pressure;Samples;Min_cycle;Max_cycle;Signal;HPM_P1;HPM_P2
2021/12/09 00:00:14;;;;;;;33.28;15.48;;;;;;;-148.16;100.00;58328.31;5037132;28;20053;-65
2021/12/09 00:03:07;;;;;;;38.85;17.20;;;;;;;-148.16;100.00;58328.31;5029338;28;20353;-68
2021/12/09 00:05:55;;;;;;;39.08;17.05;;;;;;;-148.16;100.00;58328.31;5038343;28;20049;-68
2021/12/09 00:08:41;;;;;;;35.47;14.20;;;;;;;-148.16;100.00;58328.31;5042825;28;20384;-65
2021/12/09 00:11:29;;;;;;;38.35;15.45;;;;;;;-148.16;100.00;58328.31;5038890;28;20702;-67
2021/12/09 00:14:22;;;;;;;38.50;15.40;;;;;;;-148.16;100.00;58328.31;5035476;28;20373;-66
2021/12/09 00:17:09;;;;;;;32.72;14.95;;;;;;;-148.16;100.00;58328.31;5035784;28;20412;-67
2021/12/09 00:19:55;;;;;;;31.98;16.30;;;;;;;-148.16;100.00;58328.31;5035978;28;20075;-68
2021/12/09 00:22:42;;;;;;;35.03;15.75;;;;;;;-148.16;100.00;58328.31;5035693;28;20049;-68
2021/12/09 00:25:27;;;;;;;38.00;16.10;;;;;;;-148.16;100.00;58328.31;5035268;28;20045;-65
2021/12/09 00:28:13;;;;;;;43.78;17.02;;;;;;;-148.16;100.00;58328.31;5033768;28;20045;-67
2021/12/09 00:30:59;;;;;;;38.60;16.88;;;;;;;-148.16;100.00;58328.31;5025603;28;20034;-65
2021/12/09 00:33:47;;;;;;;41.28;16.08;;;;;;;-148.16;100.00;58328.31;5034749;28;20038;-66
2021/12/09 00:36:40;;;;;;;34.40;16.10;;;;;;;-148.16;100.00;58328.31;5033434;28;20037;-67
2021/12/09 00:39:27;;;;;;;32.33;14.80;;;;;;;-148.16;100.00;58328.31;5039472;28;20045;-66
2021/12/09 00:42:12;;;;;;;41.53;16.27;;;;;;;-148.16;100.00;58328.31;5039426;28;20037;-67
2021/12/09 00:44:58;;;;;;;38.35;15.27;;;;;;;-148.16;100.00;58328.31;5039339;28;20045;-67
2021/12/09 00:47:44;;;;;;;41.88;17.15;;;;;;;-148.16;100.00;58328.31;5032780;28;20053;-68
2021/12/09 00:50:30;;;;;;;40.25;16.17;;;;;;;-148.16;100.00;58328.31;5034184;28;20046;-65
2021/12/09 00:53:16;;;;;;;35.28;16.02;;;;;;;-148.16;100.00;58328.31;5034537;28;20049;-66
2021/12/09 00:56:04;;;;;;;36.90;15.65;;;;;;;-148.16;100.00;58328.31;5034143;28;20053;-67
2021/12/09 00:58:51;;;;;;;40.08;16.88;;;;;;;-148.16;100.00;58328.31;5038489;28;20045;-67
2021/12/09 01:01:37;;;;;;;42.05;17.35;;;;;;;-148.16;100.00;58328.31;5033249;28;20049;-68
2021/12/09 01:04:23;;;;;;;34.90;15.38;;;;;;;-148.16;100.00;58328.31;5034204;28;20041;-68
2021/12/09 01:07:09;;;;;;;36.53;17.33;;;;;;;-148.16;100.00;58328.31;5033029;28;20041;-67
2021/12/09 01:09:55;;;;;;;37.03;16.02;;;;;;;-148.16;100.00;58328.31;5032852;28;20037;-68
2021/12/09 01:12:42;;;;;;;42.17;16.85;;;;;;;-148.16;100.00;58328.31;5033651;28;20041;-66
2021/12/09 01:15:29;;;;;;;35.58;16.27;;;;;;;-148.16;100.00;58328.31;5033779;28;20053;-67
2021/12/09 01:18:14;;;;;;;38.30;15.45;;;;;;;-148.16;100.00;58328.31;5032720;28;20041;-66
2021/12/09 01:21:00;;;;;;;39.38;16.33;;;;;;;-148.16;100.00;58328.31;5018331;28;20472;-67
2021/12/09 01:23:46;;;;;;;38.75;14.88;;;;;;;-148.16;100.00;58328.31;5038934;28;20045;-65
2021/12/09 01:26:32;;;;;;;33.40;15.65;;;;;;;-148.16;100.00;58328.31;5037631;28;20384;-66
2021/12/09 01:29:27;;;;;;;39.65;17.23;;;;;;;-148.16;100.00;58328.31;5038421;28;20037;-66
2021/12/09 01:32:13;;;;;;;39.60;15.65;;;;;;;-148.16;100.00;58328.31;5038762;28;20504;-68
2021/12/09 01:34:59;;;;;;;43.00;15.07;;;;;;;-148.16;100.00;58328.31;5032426;28;20496;-64
2021/12/09 01:37:46;;;;;;;39.30;17.63;;;;;;;-148.16;100.00;58328.31;5033519;28;20392;-65
2021/12/09 01:40:32;;;;;;;34.63;14.40;;;;;;;-148.16;100.00;58328.31;5033300;28;20050;-68
2021/12/09 01:43:18;;;;;;;35.33;16.40;;;;;;;-148.16;100.00;58328.31;5032439;28;20049;-67
2021/12/09 01:46:08;;;;;;;32.38;15.02;;;;;;;-148.16;100.00;58328.31;5033169;28;20049;-65
2021/12/09 01:48:54;;;;;;;37.15;14.82;;;;;;;-148.16;100.00;58328.31;5037610;28;20037;-65
2021/12/09 01:51:41;;;;;;;30.83;13.50;;;;;;;-148.16;100.00;58328.31;5033434;28;20422;-67
2021/12/09 01:54:27;;;;;;;32.30;13.90;;;;;;;-148.16;100.00;58328.31;5033140;28;20045;-67
2021/12/09 01:57:15;;;;;;;33.22;14.50;;;;;;;-148.16;100.00;58328.31;5032828;28;20057;-68
2021/12/09 02:00:03;;;;;;;33.45;13.57;;;;;;;-148.16;100.00;58328.31;5031701;28;20436;-65
2021/12/09 02:02:50;;;;;;;28.77;13.32;;;;;;;-148.16;100.00;58328.31;5032644;28;20046;-65
2021/12/09 02:05:40;;;;;;;33.65;14.00;;;;;;;-148.16;100.00;58328.31;5033042;28;20049;-68
2021/12/09 02:08:26;;;;;;;34.60;13.82;;;;;;;-148.16;100.00;58328.31;5032783;28;20049;-65
2021/12/09 02:11:12;;;;;;;35.75;14.13;;;;;;;-148.16;100.00;58328.31;5031322;28;20037;-68
2021/12/09 02:13:58;;;;;;;29.80;12.15;;;;;;;-148.16;100.00;58328.31;5032600;28;20426;-67
2021/12/09 02:16:45;;;;;;;33.45;13.90;;;;;;;-148.16;100.00;58328.31;5037060;28;20056;-64
2021/12/09 02:19:31;;;;;;;31.40;12.30;;;;;;;-148.16;100.00;58328.31;5037637;28;20468;-67
2021/12/09 02:22:17;;;;;;;32.80;13.38;;;;;;;-148.16;100.00;58328.31;5032578;28;20045;-66
2021/12/09 02:25:04;;;;;;;29.08;12.82;;;;;;;-148.16;100.00;58328.31;5032508;28;20060;-67
2021/12/09 02:27:51;;;;;;;31.08;12.43;;;;;;;-148.16;100.00;58328.31;5032430;28;20037;-68
2021/12/09 02:30:37;;;;;;;32.05;12.80;;;;;;;-148.16;100.00;58328.31;5036945;28;20041;-68
2021/12/09 02:33:23;;;;;;;30.95;13.00;;;;;;;-148.16;100.00;58328.31;5037701;28;20389;-67
2021/12/09 02:36:09;;;;;;;29.38;11.63;;;;;;;-148.16;100.00;58328.31;5036641;28;20045;-68
2021/12/09 02:38:55;;;;;;;32.00;13.70;;;;;;;-148.16;100.00;58328.31;5031405;28;20041;-69
2021/12/09 02:41:42;;;;;;;28.02;12.52;;;;;;;-148.16;100.00;58328.31;5031067;28;20357;-67
2021/12/09 02:44:29;;;;;;;31.55;12.95;;;;;;;-148.16;100.00;58328.31;5023236;28;20045;-68
2021/12/09 02:47:15;;;;;;;28.13;12.20;;;;;;;-148.16;100.00;58328.31;5031120;28;20041;-65
2021/12/09 02:50:03;;;;;;;31.10;13.43;;;;;;;-148.16;100.00;58328.31;5031963;28;20037;-66
2021/12/09 02:52:48;;;;;;;30.95;11.90;;;;;;;-148.16;100.00;58328.31;5032040;28;20057;-67
2021/12/09 02:55:35;;;;;;;28.40;12.85;;;;;;;-148.16;100.00;58328.31;5036796;28;20049;-67
2021/12/09 02:58:21;;;;;;;30.08;11.45;;;;;;;-148.16;100.00;58328.31;5032462;28;20045;-64
2021/12/09 03:01:15;;;;;;;31.52;12.52;;;;;;;-148.16;100.00;58328.31;5037282;28;20049;-67
2021/12/09 03:04:04;;;;;;;27.55;11.50;;;;;;;-148.16;100.00;58328.31;5032701;28;20037;-68
2021/12/09 03:06:53;;;;;;;29.40;11.55;;;;;;;-148.16;100.00;58328.31;5027291;28;20045;-63
2021/12/09 03:09:48;;;;;;;29.33;11.35;;;;;;;-148.16;100.00;58328.31;5036897;28;20037;-66
2021/12/09 03:12:39;;;;;;;25.63;10.65;;;;;;;-148.16;100.00;58328.31;5031974;28;20041;-64
2021/12/09 03:15:24;;;;;;;22.15;10.70;;;;;;;-148.16;100.00;58328.31;5031947;28;20046;-69
2021/12/09 03:18:10;;;;;;;30.83;11.30;;;;;;;-148.16;100.00;58328.31;5031797;28;20041;-65
2021/12/09 03:20:56;;;;;;;30.52;11.63;;;;;;;-148.16;100.00;58328.31;5030386;28;20041;-64
2021/12/09 03:23:43;;;;;;;27.25;11.52;;;;;;;-148.16;100.00;58328.31;5032002;28;20368;-67
2021/12/09 03:26:35;;;;;;;24.52;10.80;;;;;;;-148.16;100.00;58328.31;5031856;28;20380;-66
2021/12/09 03:29:23;;;;;;;28.08;11.40;;;;;;;-148.16;100.00;58328.31;5031269;28;20049;-65
2021/12/09 03:32:14;;;;;;;23.27;10.02;;;;;;;-148.16;100.00;58328.31;5031229;28;20042;-67
2021/12/09 03:35:00;;;;;;;24.95;10.98;;;;;;;-148.16;100.00;58328.31;5030903;28;20063;-66
2021/12/09 03:37:45;;;;;;;24.05;10.38;;;;;;;-148.16;100.00;58328.31;5032112;28;20050;-67
2021/12/09 03:40:31;;;;;;;26.35;10.25;;;;;;;-148.16;100.00;58328.31;5025613;28;20477;-66
2021/12/09 03:43:17;;;;;;;25.88;10.15;;;;;;;-148.16;100.00;58328.31;5031426;28;20049;-65
2021/12/09 03:46:04;;;;;;;25.40;10.88;;;;;;;-148.16;100.00;58328.31;5031970;28;20045;-67
2021/12/09 03:48:50;;;;;;;24.30;10.25;;;;;;;-148.16;100.00;58328.31;5031975;28;20909;-67
2021/12/09 03:51:36;;;;;;;26.67;11.27;;;;;;;-148.16;100.00;58328.31;5016278;28;20041;-66
2021/12/09 03:54:23;;;;;;;27.55;11.35;;;;;;;-148.16;100.00;58328.31;5017187;28;20037;-67
2021/12/09 03:57:11;;;;;;;22.20;8.95;;;;;;;-148.16;100.00;58328.31;5014491;28;20050;-66
2021/12/09 03:59:56;;;;;;;24.38;11.05;;;;;;;-148.16;100.00;58328.31;5014612;28;20038;-65
2021/12/09 04:02:42;;;;;;;25.98;11.50;;;;;;;-148.16;100.00;58328.31;5026634;28;20041;-64
2021/12/09 04:05:28;;;;;;;22.10;10.43;;;;;;;-148.16;100.00;58328.31;5033838;28;20045;-65
2021/12/09 04:08:15;;;;;;;24.77;10.70;;;;;;;-148.16;100.00;58328.31;5034312;28;20042;-62
2021/12/09 04:11:01;;;;;;;21.55;10.25;;;;;;;-148.16;100.00;58328.31;5008573;28;20037;-62
2021/12/09 04:13:47;;;;;;;22.13;10.02;;;;;;;-148.16;100.00;58328.31;5033848;28;20041;-63
2021/12/09 04:16:34;;;;;;;27.20;10.73;;;;;;;-148.16;100.00;58328.31;5051280;28;20037;-64
2021/12/09 04:19:20;;;;;;;24.52;10.10;;;;;;;-148.16;100.00;58328.31;5032087;28;20050;-66
2021/12/09 04:22:06;;;;;;;24.77;10.88;;;;;;;-148.16;100.00;58328.31;5015341;28;20042;-66
2021/12/09 04:24:53;;;;;;;22.70;10.23;;;;;;;-148.16;100.00;58328.31;5063671;28;20129;-66
2021/12/09 04:27:38;;;;;;;22.50;9.15;;;;;;;-148.16;100.00;58328.31;5039081;28;20472;-66
2021/12/09 04:30:25;;;;;;;23.23;9.65;;;;;;;-148.16;100.00;58328.31;5033480;28;20041;-67
2021/12/09 04:33:11;;;;;;;22.85;9.88;;;;;;;-148.16;100.00;58328.31;5034124;28;20473;-67
2021/12/09 04:35:57;;;;;;;24.00;10.15;;;;;;;-148.16;100.00;58328.31;5034766;28;20046;-67
2021/12/09 04:38:45;;;;;;;20.88;9.50;;;;;;;-148.16;100.00;58328.31;5034384;28;20037;-66
2021/12/09 04:41:30;;;;;;;24.42;9.65;;;;;;;-148.16;100.00;58328.31;5039321;28;20048;-65
2021/12/09 04:44:17;;;;;;;24.65;11.02;;;;;;;-148.16;100.00;58328.31;5034488;28;20049;-67
2021/12/09 04:47:03;;;;;;;22.17;10.00;;;;;;;-148.16;100.00;58328.31;5034423;28;20038;-67
2021/12/09 04:49:49;;;;;;;23.58;10.55;;;;;;;-148.16;100.00;58328.31;5033032;28;20049;-66
2021/12/09 04:52:35;;;;;;;22.02;8.85;;;;;;;-148.16;100.00;58328.31;5034217;28;20042;-67
2021/12/09 04:55:21;;;;;;;24.48;9.95;;;;;;;-148.16;100.00;58328.31;5038814;28;20041;-64
2021/12/09 04:58:07;;;;;;;22.67;10.65;;;;;;;-148.16;100.00;58328.31;5033597;28;20472;-67
2021/12/09 05:00:56;;;;;;;27.45;10.32;;;;;;;-148.16;100.00;58328.31;5033797;28;20469;-63
2021/12/09 05:03:45;;;;;;;24.17;10.30;;;;;;;-148.16;100.00;58328.31;5024639;28;20046;-61
2021/12/09 05:06:31;;;;;;;25.38;9.48;;;;;;;-148.16;100.00;58328.31;5033633;28;20049;-65
2021/12/09 05:09:18;;;;;;;26.95;9.48;;;;;;;-148.16;100.00;58328.31;5038410;28;20034;-66
2021/12/09 05:12:05;;;;;;;27.58;11.10;;;;;;;-148.16;100.00;58328.31;5032607;28;20037;-64
2021/12/09 05:14:51;;;;;;;24.75;9.50;;;;;;;-148.16;100.00;58328.31;5032810;28;20045;-67
2021/12/09 05:17:37;;;;;;;22.45;9.80;;;;;;;-148.16;100.00;58328.31;5038663;28;20041;-65
2021/12/09 05:20:23;;;;;;;20.38;8.45;;;;;;;-148.16;100.00;58328.31;5033984;28;20045;-66
2021/12/09 05:23:09;;;;;;;25.55;10.95;;;;;;;-148.16;100.00;58328.31;5032621;28;20041;-67
2021/12/09 05:25:54;;;;;;;23.20;9.57;;;;;;;-148.16;100.00;58328.31;5033733;28;20397;-63
2021/12/09 05:28:40;;;;;;;21.38;9.35;;;;;;;-148.16;100.00;58328.31;5037975;28;20396;-63
2021/12/09 05:34:41;;;;;;;22.50;9.77;;;;;;;-148.16;100.00;58328.31;5019183;28;20042;-63
2021/12/09 05:37:27;;;;;;;21.52;9.27;;;;;;;-148.16;100.00;58328.31;5023435;28;20033;-64
2021/12/09 05:40:15;;;;;;;25.65;10.50;;;;;;;-148.16;100.00;58328.31;5032331;28;20041;-66
2021/12/09 05:43:00;;;;;;;23.23;9.88;;;;;;;-148.16;100.00;58328.31;5030638;28;20041;-65
2021/12/09 05:45:48;;;;;;;21.08;8.80;;;;;;;-148.16;100.00;58328.31;5032157;28;20381;-65
2021/12/09 05:48:35;;;;;;;22.98;9.88;;;;;;;-148.16;100.00;58328.31;5031775;28;20042;-65
2021/12/09 05:51:25;;;;;;;24.15;9.88;;;;;;;-148.16;100.00;58328.31;5031286;28;20029;-67
2021/12/09 05:54:12;;;;;;;21.27;9.07;;;;;;;-148.16;100.00;58328.31;5030452;28;20045;-67
2021/12/09 05:56:58;;;;;;;18.85;9.02;;;;;;;-148.16;100.00;58328.31;5020038;28;20046;-61
2021/12/09 05:59:44;;;;;;;25.25;11.70;;;;;;;-148.16;100.00;58328.31;5033195;28;20045;-64
2021/12/09 06:02:32;;;;;;;23.15;8.85;;;;;;;-148.16;100.00;58328.31;5032982;28;20045;-63
2021/12/09 06:05:19;;;;;;;19.00;9.30;;;;;;;-148.16;100.00;58328.31;5032863;28;20038;-63
2021/12/09 06:08:05;;;;;;;21.50;9.77;;;;;;;-148.16;100.00;58328.31;5033121;28;20057;-63
2021/12/09 06:10:51;;;;;;;22.20;8.35;;;;;;;-148.16;100.00;58328.31;5032252;28;20045;-65
2021/12/09 06:13:38;;;;;;;23.48;10.23;;;;;;;-148.16;100.00;58328.31;5037410;28;20041;-65
2021/12/09 06:16:24;;;;;;;25.40;10.15;;;;;;;-148.16;100.00;58328.31;5038031;28;20037;-70
2021/12/09 06:19:11;;;;;;;21.30;10.13;;;;;;;-148.16;100.00;58328.31;5032802;28;20041;-62
2021/12/09 06:21:56;;;;;;;20.75;9.07;;;;;;;-148.16;100.00;58328.31;5032829;28;20361;-66
2021/12/09 06:24:44;;;;;;;22.60;9.45;;;;;;;-148.16;100.00;58328.31;5032695;28;20049;-63
2021/12/09 06:27:30;;;;;;;23.88;9.18;;;;;;;-148.16;100.00;58328.31;5032818;28;20492;-67
2021/12/09 06:30:18;;;;;;;24.65;10.85;;;;;;;-148.16;100.00;58328.31;5031781;28;20038;-67
2021/12/09 06:33:05;;;;;;;25.50;10.30;;;;;;;-148.16;100.00;58328.31;5032079;28;20041;-69
2021/12/09 06:35:51;;;;;;;25.27;10.02;;;;;;;-148.16;100.00;58328.31;5030290;28;20045;-63
2021/12/09 06:38:37;;;;;;;25.33;10.27;;;;;;;-148.16;100.00;58328.31;5031176;28;20388;-65
2021/12/09 06:41:23;;;;;;;29.17;11.10;;;;;;;-148.16;100.00;58328.31;5031696;28;20049;-65
2021/12/09 06:44:09;;;;;;;28.63;11.23;;;;;;;-148.16;100.00;58328.31;5033069;28;20500;-64
2021/12/09 06:46:56;;;;;;;26.83;11.60;;;;;;;-148.16;100.00;58328.31;5031758;28;20049;-66
2021/12/09 06:49:42;;;;;;;23.88;10.40;;;;;;;-148.16;100.00;58328.31;5065309;28;20472;-69
2021/12/09 06:52:30;;;;;;;20.65;9.63;;;;;;;-148.16;100.00;58328.31;5029283;28;20041;-68
2021/12/09 06:55:17;;;;;;;21.90;9.75;;;;;;;-148.16;100.00;58328.31;5035738;28;20041;-66
2021/12/09 06:58:06;;;;;;;17.10;8.80;;;;;;;-148.16;100.00;58328.31;5032005;28;20037;-65
2021/12/09 07:00:55;;;;;;;22.95;9.68;;;;;;;-148.16;100.00;58328.31;5052418;28;20473;-64
2021/12/09 07:03:41;;;;;;;20.83;9.20;;;;;;;-148.16;100.00;58328.31;5030481;28;20041;-63
2021/12/09 07:06:27;;;;;;;26.02;10.40;;;;;;;-148.16;100.00;58328.31;5023287;28;20054;-61
2021/12/09 07:09:14;;;;;;;23.20;9.73;;;;;;;-148.16;100.00;58328.31;5032362;28;20372;-61
2021/12/09 07:11:59;;;;;;;22.33;10.05;;;;;;;-148.16;100.00;58328.31;5037428;28;20463;-70
2021/12/09 07:14:45;;;;;;;19.63;8.55;;;;;;;-148.16;100.00;58328.31;5032005;28;20041;-66
2021/12/09 07:17:31;;;;;;;22.05;9.68;;;;;;;-148.16;100.00;58328.31;5036132;28;20049;-65
2021/12/09 07:20:19;;;;;;;20.92;9.77;;;;;;;-148.16;100.00;58328.31;5029824;28;20500;-67
2021/12/09 07:23:05;;;;;;;22.88;9.13;;;;;;;-148.16;100.00;58328.31;5036390;28;20113;-66
2021/12/09 07:25:51;;;;;;;24.45;9.98;;;;;;;-148.16;100.00;58328.31;5046262;28;20041;-63
2021/12/09 07:28:37;;;;;;;24.40;9.73;;;;;;;-148.16;100.00;58328.31;5044769;28;20037;-65
2021/12/09 07:31:24;;;;;;;22.85;9.13;;;;;;;-148.16;100.00;58328.31;5043641;28;20033;-66
2021/12/09 07:34:10;;;;;;;20.38;9.20;;;;;;;-148.16;100.00;58328.31;5050462;28;20042;-66
2021/12/09 07:37:01;;;;;;;21.65;8.85;;;;;;;-148.16;100.00;58328.31;5033611;28;20033;-65
2021/12/09 07:39:47;;;;;;;22.25;9.60;;;;;;;-148.16;100.00;58328.31;5026116;28;20045;-65
2021/12/09 07:42:33;;;;;;;19.15;8.38;;;;;;;-148.16;100.00;58328.31;5035789;28;20408;-64
2021/12/09 07:45:19;;;;;;;21.65;9.30;;;;;;;-148.16;100.00;58328.31;5035278;28;20053;-66
2021/12/09 07:48:05;;;;;;;20.42;9.35;;;;;;;-148.16;100.00;58328.31;5026772;28;20045;-67
2021/12/09 07:50:51;;;;;;;26.80;10.07;;;;;;;-148.16;100.00;58328.31;5033430;28;20496;-63
2021/12/09 07:53:37;;;;;;;23.40;11.07;;;;;;;-148.16;100.00;58328.31;5026360;28;20041;-63
2021/12/09 07:56:22;;;;;;;24.90;10.85;;;;;;;-148.16;100.00;58328.31;5052080;28;20045;-68
2021/12/09 07:59:11;;;;;;;24.35;11.10;;;;;;;-148.16;100.00;58328.31;5048544;28;20038;-62
2021/12/09 08:01:57;;;;;;;24.58;11.02;;;;;;;-148.16;100.00;58328.31;5033593;28;20049;-62
2021/12/09 08:04:43;;;;;;;19.27;9.40;;;;;;;-148.16;100.00;58328.31;5047994;28;20049;-62
2021/12/09 08:07:28;;;;;;;23.52;10.35;;;;;;;-148.16;100.00;58328.31;5040022;28;20037;-66
2021/12/09 08:10:17;;;;;;;22.00;9.55;;;;;;;-148.16;100.00;58328.31;5034168;28;20042;-60
2021/12/09 08:13:04;;;;;;;36.97;21.10;;;;;;;-148.16;100.00;58328.31;5035352;28;20465;-62
2021/12/09 08:15:53;;;;;;;29.30;12.65;;;;;;;-148.16;100.00;58328.31;5023023;28;20041;-60
2021/12/09 08:18:53;;;;;;;30.25;14.82;;;;;;;-148.16;100.00;58328.31;5059477;28;20046;-58
2021/12/09 08:21:41;;;;;;;24.52;11.15;;;;;;;-148.16;100.00;58328.31;5034818;28;20037;-62
2021/12/09 08:24:26;;;;;;;27.55;11.65;;;;;;;-148.16;100.00;58328.31;5019702;28;20058;-60
2021/12/09 08:27:12;;;;;;;21.38;10.38;;;;;;;-148.16;100.00;58328.31;5031373;28;20049;-62
2021/12/09 08:30:04;;;;;;;26.27;12.98;;;;;;;-148.16;100.00;58328.31;5034672;28;20041;-64
2021/12/09 08:32:51;;;;;;;;;;;;;;;-148.16;100.00;58328.31;5015350;28;20042;-61
2021/12/09 08:35:37;;;;;;;22.92;11.30;;;;;;;-148.16;100.00;58328.31;5014136;28;19913;-58
2021/12/09 08:38:24;;;;;;;21.92;10.15;;;;;;;-148.16;100.00;58328.31;5042082;28;20396;-63
2021/12/09 08:41:11;;;;;;;25.80;10.80;;;;;;;-148.16;100.00;58328.31;5033717;28;20042;-64
2021/12/09 08:43:57;;;;;;;23.60;10.00;;;;;;;-148.16;100.00;58328.31;5058839;28;20041;-62
2021/12/09 08:46:43;;;;;;;23.55;10.57;;;;;;;-148.16;100.00;58328.31;5038931;28;20033;-56
2021/12/09 08:49:28;;;;;;;22.65;11.13;;;;;;;-148.16;100.00;58328.31;5053450;28;20034;-63
2021/12/09 08:52:15;;;;;;;23.92;10.88;;;;;;;-148.16;100.00;58328.31;5033917;28;20766;-53
2021/12/09 08:55:01;;;;;;;18.73;9.23;;;;;;;-148.16;100.00;58328.31;5034266;28;20041;-61
2021/12/09 08:57:47;;;;;;;16.45;7.57;;;;;;;-148.16;100.00;58328.31;4994999;28;20046;-60
2021/12/09 09:00:34;;;;;;;17.45;8.25;;;;;;;-148.16;100.00;58328.31;4985700;28;20050;-64
2021/12/09 09:03:20;;;;;;;16.73;7.88;;;;;;;-148.16;100.00;58328.31;4979654;28;20413;-62
2021/12/09 09:06:06;;;;;;;13.68;7.05;;;;;;;-148.16;100.00;58328.31;4984139;28;20050;-56
2021/12/09 09:08:57;;;;;;;15.68;6.97;;;;;;;-148.16;100.00;58328.31;4997215;28;20419;-61
2021/12/09 09:11:43;;;;;;;14.98;6.88;;;;;;;-148.16;100.00;58328.31;4992779;28;20046;-61
2021/12/09 09:14:28;;;;;;;16.10;6.93;;;;;;;-148.16;100.00;58328.31;4997426;28;20038;-63
2021/12/09 09:17:15;;;;;;;14.18;7.35;;;;;;;-148.16;100.00;58328.31;4992411;28;20068;-61
2021/12/09 09:20:03;;;;;;;13.57;6.70;;;;;;;-148.16;100.00;58328.31;4992820;28;20381;-61
2021/12/09 09:22:49;;;;;;;16.98;7.25;;;;;;;-148.16;100.00;58328.31;4991736;28;20050;-61
2021/12/09 09:25:36;;;;;;;12.85;6.43;;;;;;;-148.16;100.00;58328.31;4991285;28;20042;-60
2021/12/09 09:28:22;;;;;;;14.07;7.22;;;;;;;-148.16;100.00;58328.31;4991533;28;20394;-59
2021/12/09 09:31:09;;;;;;;16.65;6.93;;;;;;;-148.16;100.00;58328.31;4992338;28;20062;-59
2021/12/09 09:33:54;;;;;;;19.15;7.25;;;;;;;-148.16;100.00;58328.31;4983388;28;20398;-61
2021/12/09 09:36:44;;;;;;;16.95;7.43;;;;;;;-148.16;100.00;58328.31;4992162;28;20141;-60
2021/12/09 09:39:32;;;;;;;13.85;6.70;;;;;;;-148.16;100.00;58328.31;4994133;28;20042;-57
2021/12/09 09:42:54;;;;;;;15.60;7.53;;;;;;;-148.16;100.00;58328.31;4992602;28;20042;-61
2021/12/09 09:45:36;;;;;;;14.75;7.15;;;;;;;-148.16;100.00;58328.31;4997987;28;20441;-55
2021/12/09 09:48:22;;;;;;;17.88;8.32;;;;;;;-148.16;100.00;58328.31;4998624;28;20042;-58
2021/12/09 09:51:09;;;;;;;15.82;7.13;;;;;;;-148.16;100.00;58328.31;4994049;28;20462;-61
2021/12/09 09:53:56;;;;;;;15.23;7.30;;;;;;;-148.16;100.00;58328.31;4993764;28;20046;-60
2021/12/09 09:56:43;;;;;;;15.65;7.68;;;;;;;-148.16;100.00;58328.31;5018915;28;20060;-57
2021/12/09 09:59:28;;;;;;;16.50;7.65;;;;;;;-148.16;100.00;58328.31;5032821;28;20045;-61
2021/12/09 10:02:15;;;;;;;14.35;7.05;;;;;;;-148.16;100.00;58328.31;5032654;28;20045;-63
2021/12/09 10:05:04;;;;;;;17.02;7.35;;;;;;;-148.16;100.00;58328.31;5032854;28;20045;-58
2021/12/09 10:07:51;;;;;;;14.15;5.78;;;;;;;-148.16;100.00;58328.31;5031664;28;20469;-62
2021/12/09 10:10:38;;;;;;;18.10;7.80;;;;;;;-148.16;100.00;58328.31;5025401;28;20049;-58
2021/12/09 10:13:34;;;;;;;16.08;7.47;;;;;;;-148.16;100.00;58328.31;5017858;28;20049;-50
2021/12/09 10:16:28;;;;;;;14.63;6.90;;;;;;;-148.16;100.00;58328.31;5012203;28;20041;-65
2021/12/09 10:19:21;;;;;;;14.80;7.35;;;;;;;-148.16;100.00;58328.31;5017764;28;20050;-66
2021/12/09 10:22:13;;;;;;;18.83;8.00;;;;;;;-148.16;100.00;58328.31;5040270;28;20041;-66
2021/12/09 10:25:00;;;;;;;17.88;7.60;;;;;;;-148.16;100.00;58328.31;5018131;28;20042;-66
2021/12/09 10:27:59;;;;;;;18.90;7.32;;;;;;;-148.16;100.00;58328.31;5040822;28;20042;-66
2021/12/09 10:31:13;;;;;;;16.38;7.32;;;;;;;-148.16;100.00;58328.31;5012792;28;20064;-69
2021/12/09 10:34:28;;;;;;;21.63;7.78;;;;;;;-148.16;100.00;58328.31;5004482;28;20042;-70
2021/12/09 10:37:27;;;;;;;17.48;7.43;;;;;;;-148.16;100.00;58328.31;5032203;28;20049;-66
2021/12/09 10:40:16;;;;;;;15.43;6.28;;;;;;;-148.16;100.00;58328.31;5013462;28;20041;-64
2021/12/09 10:43:05;;;;;;;13.32;6.57;;;;;;;-148.16;100.00;58328.31;5031453;28;20292;-63
2021/12/09 10:45:53;;;;;;;14.02;5.47;;;;;;;-148.16;100.00;58328.31;5003515;28;20037;-66
2021/12/09 10:48:40;;;;;;;13.80;6.00;;;;;;;-148.16;100.00;58328.31;5011268;28;20041;-57
2021/12/09 10:51:36;;;;;;;14.10;6.03;;;;;;;-148.16;100.00;58328.31;5050544;28;20658;-67
2021/12/09 10:54:36;;;;;;;16.88;7.03;;;;;;;-148.16;100.00;58328.31;5032241;28;20044;-64
2021/12/09 10:57:29;;;;;;;13.38;5.90;;;;;;;-148.16;100.00;58328.31;5017546;28;20472;-64
2021/12/09 11:00:22;;;;;;;14.45;6.30;;;;;;;-148.16;100.00;58328.31;5023127;28;20049;-64
2021/12/09 11:03:28;;;;;;;11.13;5.60;;;;;;;-148.16;100.00;58328.31;5029742;28;20496;-65
2021/12/09 11:06:18;;;;;;;13.23;6.43;;;;;;;-148.16;100.00;58328.31;5031037;28;20049;-61
2021/12/09 11:09:13;;;;;;;16.80;6.18;;;;;;;-148.16;100.00;58328.31;5051366;28;20447;-63
2021/12/09 11:11:59;;;;;;;13.30;6.40;;;;;;;-148.16;100.00;58328.31;5065518;28;20042;-64
2021/12/09 11:14:56;;;;;;;16.60;6.57;;;;;;;-148.16;100.00;58328.31;5022312;28;20404;-63
2021/12/09 11:17:45;;;;;;;15.52;6.07;;;;;;;-148.16;100.00;58328.31;5032274;28;20416;-59
2021/12/09 11:24:06;;;;;;;12.73;6.18;;;;;;;-148.16;100.00;58328.31;5030809;28;20037;-60
2021/12/09 11:26:57;;;;;;;14.32;6.43;;;;;;;-148.16;100.00;58328.31;5037316;28;20052;-60
2021/12/09 11:29:50;;;;;;;11.80;5.90;;;;;;;-148.16;100.00;58328.31;5051791;28;20046;-65
2021/12/09 11:33:02;;;;;;;14.40;6.80;;;;;;;-148.16;100.00;58328.31;5036842;28;20041;-61
2021/12/09 11:35:49;;;;;;;;;;;;;;;-148.16;100.00;58328.31;5033582;28;20041;-59
2021/12/09 11:39:09;;;;;;;12.88;5.70;;;;;;;-148.16;100.00;58328.31;5038374;28;19913;-63
2021/12/09 11:42:05;;;;;;;11.85;5.93;;;;;;;-148.16;100.00;58328.31;5030225;28;20034;-60
2021/12/09 11:44:51;;;;;;;13.13;5.72;;;;;;;-148.16;100.00;58328.31;5037037;28;20049;-61
2021/12/09 11:47:39;;;;;;;11.48;5.55;;;;;;;-148.16;100.00;58328.31;5030877;28;20041;-60
2021/12/09 11:50:32;;;;;;;13.23;5.00;;;;;;;-148.16;100.00;58328.31;5030958;28;20488;-65
2021/12/09 11:53:25;;;;;;;12.07;5.78;;;;;;;-148.16;100.00;58328.31;5022832;28;20465;-67
2021/12/09 11:56:24;;;;;;;9.93;4.95;;;;;;;-148.16;100.00;58328.31;5021871;28;20053;-66
2021/12/09 12:06:35;;;;;;;11.40;4.85;;;;;;;-148.16;100.00;58328.31;5023383;28;20675;-60
2021/12/09 12:19:01;;;;;;;11.85;5.40;;;;;;;-148.16;100.00;58328.31;5031253;28;20045;-61
2021/12/09 12:22:00;;;;;;;7.93;4.03;;;;;;;-148.16;100.00;58328.31;5033379;28;20042;-61
2021/12/09 12:25:11;;;;;;;9.82;4.75;;;;;;;-148.16;100.00;58328.31;5036581;28;20053;-60
2021/12/09 12:35:17;;;;;;;8.27;4.03;;;;;;;-148.16;100.00;58328.31;5040225;28;20045;-60
2021/12/09 12:41:15;;;;;;;8.32;4.10;;;;;;;-148.16;100.00;58328.31;5038580;28;20041;-57
2021/12/09 12:44:06;;;;;;;10.00;3.65;;;;;;;-148.16;100.00;58328.31;5034437;28;20400;-58
2021/12/09 12:49:45;;;;;;;8.07;3.88;;;;;;;-148.16;100.00;58328.31;5034751;28;20037;-61
2021/12/09 12:52:33;;;;;;;6.57;2.95;;;;;;;-148.16;100.00;58328.31;5039656;28;20049;-61
2021/12/09 12:55:26;;;;;;;8.98;3.65;;;;;;;-148.16;100.00;58328.31;5025912;28;20037;-61
2021/12/09 12:58:13;;;;;;;8.05;3.90;;;;;;;-148.16;100.00;58328.31;5034056;28;20472;-62
2021/12/09 13:01:18;;;;;;;7.22;3.22;;;;;;;-148.16;100.00;58328.31;5038656;28;20033;-61
2021/12/09 13:04:27;;;;;;;7.85;3.28;;;;;;;-148.16;100.00;58328.31;5032945;28;20053;-62
2021/12/09 13:17:06;;;;;;;7.47;3.13;;;;;;;-148.16;100.00;58328.31;5029669;28;20033;-54
2021/12/09 13:20:15;;;;;;;6.00;2.92;;;;;;;-148.16;100.00;58328.31;5038021;28;20041;-56